sensor_id;sensor_type;location;lat;lon;timestamp;pressure;altitude;pressure_sealevel;temperature;humidity
79285;BME280;68734;50.452;11.636;2024-02-21T00:01:14;96196.56;;;3.69;91.29
79285;BME280;68734;50.452;11.636;2024-02-21T00:03:40;96191.84;;;3.71;91.40
79285;BME280;68734;50.452;11.636;2024-02-21T00:06:05;96192.84;;;3.70;91.27
79285;BME280;68734;50.452;11.636;2024-02-21T00:08:31;96200.06;;;3.76;90.96
79285;BME280;68734;50.452;11.636;2024-02-21T00:10:56;96179.50;;;3.70;90.98
79285;BME280;68734;50.452;11.636;2024-02-21T00:13:21;96190.81;;;3.72;91.28
79285;BME280;68734;50.452;11.636;2024-02-21T00:15:49;96182.38;;;3.69;91.11
79285;BME280;68734;50.452;11.636;2024-02-21T00:18:15;96178.25;;;3.66;91.48
79285;BME280;68734;50.452;11.636;2024-02-21T00:20:40;96187.31;;;3.65;91.60
79285;BME280;68734;50.452;11.636;2024-02-21T00:23:06;96175.38;;;3.61;91.55
79285;BME280;68734;50.452;11.636;2024-02-21T00:25:31;96175.59;;;3.66;91.82
79285;BME280;68734;50.452;11.636;2024-02-21T00:27:57;96169.44;;;3.66;91.71
79285;BME280;68734;50.452;11.636;2024-02-21T00:30:22;96154.63;;;3.63;91.58
79285;BME280;68734;50.452;11.636;2024-02-21T00:32:48;96156.06;;;3.72;91.51
79285;BME280;68734;50.452;11.636;2024-02-21T00:35:14;96145.00;;;3.75;91.81
79285;BME280;68734;50.452;11.636;2024-02-21T00:37:39;96141.69;;;3.80;91.18
79285;BME280;68734;50.452;11.636;2024-02-21T00:40:05;96145.41;;;3.79;91.33
79285;BME280;68734;50.452;11.636;2024-02-21T00:42:31;96137.19;;;3.80;91.34
79285;BME280;68734;50.452;11.636;2024-02-21T00:44:59;96135.53;;;3.79;91.37
79285;BME280;68734;50.452;11.636;2024-02-21T00:47:27;96134.31;;;3.82;91.00
79285;BME280;68734;50.452;11.636;2024-02-21T00:49:55;96126.47;;;3.80;91.33
79285;BME280;68734;50.452;11.636;2024-02-21T00:52:20;96129.59;;;3.77;91.36
79285;BME280;68734;50.452;11.636;2024-02-21T00:54:46;96123.63;;;3.75;91.58
79285;BME280;68734;50.452;11.636;2024-02-21T00:57:11;96118.28;;;3.75;91.46
79285;BME280;68734;50.452;11.636;2024-02-21T00:59:37;96118.66;;;3.72;91.64
79285;BME280;68734;50.452;11.636;2024-02-21T01:02:02;96118.88;;;3.71;91.69
79285;BME280;68734;50.452;11.636;2024-02-21T01:04:28;96114.13;;;3.66;91.58
79285;BME280;68734;50.452;11.636;2024-02-21T01:06:53;96130.19;;;3.73;91.57
79285;BME280;68734;50.452;11.636;2024-02-21T01:09:22;96125.25;;;3.70;91.25
79285;BME280;68734;50.452;11.636;2024-02-21T01:11:47;96129.16;;;3.80;91.28
79285;BME280;68734;50.452;11.636;2024-02-21T01:14:15;96119.94;;;3.83;91.25
79285;BME280;68734;50.452;11.636;2024-02-21T01:16:40;96117.47;;;3.82;91.31
79285;BME280;68734;50.452;11.636;2024-02-21T01:19:06;96115.41;;;3.84;91.11
79285;BME280;68734;50.452;11.636;2024-02-21T01:21:31;96109.63;;;3.80;90.96
79285;BME280;68734;50.452;11.636;2024-02-21T01:23:59;96107.16;;;3.78;91.11
79285;BME280;68734;50.452;11.636;2024-02-21T01:26:25;96086.59;;;3.72;91.46
79285;BME280;68734;50.452;11.636;2024-02-21T01:28:50;96078.81;;;3.77;91.78
79285;BME280;68734;50.452;11.636;2024-02-21T01:31:16;96079.00;;;3.76;91.78
79285;BME280;68734;50.452;11.636;2024-02-21T01:33:41;96088.25;;;3.80;91.43
79285;BME280;68734;50.452;11.636;2024-02-21T01:36:07;96090.72;;;3.82;91.32
79285;BME280;68734;50.452;11.636;2024-02-21T01:38:33;96094.44;;;3.87;91.15
79285;BME280;68734;50.452;11.636;2024-02-21T01:40:59;96081.28;;;3.86;91.04
79285;BME280;68734;50.452;11.636;2024-02-21T01:43:24;96086.44;;;3.87;90.85
79285;BME280;68734;50.452;11.636;2024-02-21T01:45:52;96093.19;;;3.90;90.64
79285;BME280;68734;50.452;11.636;2024-02-21T01:48:18;96096.28;;;3.87;91.04
79285;BME280;68734;50.452;11.636;2024-02-21T01:50:47;96078.00;;;3.84;91.30
79285;BME280;68734;50.452;11.636;2024-02-21T01:53:22;96069.34;;;3.88;91.16
79285;BME280;68734;50.452;11.636;2024-02-21T01:55:48;96053.75;;;3.85;91.09
79285;BME280;68734;50.452;11.636;2024-02-21T01:58:15;96065.88;;;3.88;90.91
79285;BME280;68734;50.452;11.636;2024-02-21T02:00:42;96079.63;;;3.85;90.99
79285;BME280;68734;50.452;11.636;2024-02-21T02:03:12;96069.34;;;3.82;91.31
79285;BME280;68734;50.452;11.636;2024-02-21T02:05:49;96078.38;;;3.80;91.79
79285;BME280;68734;50.452;11.636;2024-02-21T02:08:15;96064.41;;;3.78;91.65
79285;BME280;68734;50.452;11.636;2024-02-21T02:10:42;96062.34;;;3.80;91.97
79285;BME280;68734;50.452;11.636;2024-02-21T02:13:07;96052.50;;;3.74;91.76
79285;BME280;68734;50.452;11.636;2024-02-21T02:15:43;96040.78;;;3.82;91.61
79285;BME280;68734;50.452;11.636;2024-02-21T02:18:09;96034.00;;;3.79;91.54
79285;BME280;68734;50.452;11.636;2024-02-21T02:20:36;96032.34;;;3.78;91.73
79285;BME280;68734;50.452;11.636;2024-02-21T02:23:10;96017.13;;;3.72;91.51
79285;BME280;68734;50.452;11.636;2024-02-21T02:25:39;96009.75;;;3.74;92.05
79285;BME280;68734;50.452;11.636;2024-02-21T02:28:08;96018.38;;;3.76;91.74
79285;BME280;68734;50.452;11.636;2024-02-21T02:30:35;96008.91;;;3.80;91.41
79285;BME280;68734;50.452;11.636;2024-02-21T02:33:04;96018.81;;;3.73;91.86
79285;BME280;68734;50.452;11.636;2024-02-21T02:35:30;96010.34;;;3.76;91.85
79285;BME280;68734;50.452;11.636;2024-02-21T02:37:55;96007.91;;;3.75;91.90
79285;BME280;68734;50.452;11.636;2024-02-21T02:40:21;96005.44;;;3.73;91.88
79285;BME280;68734;50.452;11.636;2024-02-21T02:42:46;96008.53;;;3.77;92.24
79285;BME280;68734;50.452;11.636;2024-02-21T02:45:17;96005.00;;;3.76;91.85
79285;BME280;68734;50.452;11.636;2024-02-21T02:47:45;96002.97;;;3.78;91.83
79285;BME280;68734;50.452;11.636;2024-02-21T02:50:11;95997.00;;;3.76;92.65
79285;BME280;68734;50.452;11.636;2024-02-21T02:52:37;96005.63;;;3.78;92.17
79285;BME280;68734;50.452;11.636;2024-02-21T02:55:03;95982.63;;;3.77;92.13
79285;BME280;68734;50.452;11.636;2024-02-21T02:57:33;95984.25;;;3.78;92.17
79285;BME280;68734;50.452;11.636;2024-02-21T02:59:59;95967.00;;;3.74;92.40
79285;BME280;68734;50.452;11.636;2024-02-21T03:02:24;95976.22;;;3.78;92.61
79285;BME280;68734;50.452;11.636;2024-02-21T03:04:50;95985.09;;;3.79;92.71
79285;BME280;68734;50.452;11.636;2024-02-21T03:07:16;95976.88;;;3.74;92.10
79285;BME280;68734;50.452;11.636;2024-02-21T03:09:42;95988.97;;;3.76;92.52
79285;BME280;68734;50.452;11.636;2024-02-21T03:12:10;95998.25;;;3.74;92.50
79285;BME280;68734;50.452;11.636;2024-02-21T03:14:36;95988.38;;;3.74;92.41
79285;BME280;68734;50.452;11.636;2024-02-21T03:17:02;95995.16;;;3.77;92.64
79285;BME280;68734;50.452;11.636;2024-02-21T03:19:28;95983.63;;;3.76;92.35
79285;BME280;68734;50.452;11.636;2024-02-21T03:21:55;95987.97;;;3.77;92.41
79285;BME280;68734;50.452;11.636;2024-02-21T03:24:23;95988.78;;;3.78;92.53
79285;BME280;68734;50.452;11.636;2024-02-21T03:26:49;95980.56;;;3.79;92.41
79285;BME280;68734;50.452;11.636;2024-02-21T03:29:15;95970.28;;;3.76;92.89
79285;BME280;68734;50.452;11.636;2024-02-21T03:31:41;95976.03;;;3.80;92.26
79285;BME280;68734;50.452;11.636;2024-02-21T03:34:11;95973.16;;;3.82;92.15
79285;BME280;68734;50.452;11.636;2024-02-21T03:36:37;95965.53;;;3.78;92.17
79285;BME280;68734;50.452;11.636;2024-02-21T03:39:04;95971.91;;;3.84;92.31
79285;BME280;68734;50.452;11.636;2024-02-21T03:41:30;95964.53;;;3.79;92.21
79285;BME280;68734;50.452;11.636;2024-02-21T03:43:58;95972.94;;;3.76;92.20
79285;BME280;68734;50.452;11.636;2024-02-21T03:46:24;95972.56;;;3.79;92.55
79285;BME280;68734;50.452;11.636;2024-02-21T03:48:50;95981.59;;;3.78;92.39
79285;BME280;68734;50.452;11.636;2024-02-21T03:51:16;95985.91;;;3.79;92.41
79285;BME280;68734;50.452;11.636;2024-02-21T03:53:41;95991.25;;;3.79;92.20
79285;BME280;68734;50.452;11.636;2024-02-21T03:56:07;95994.94;;;3.78;92.44
79285;BME280;68734;50.452;11.636;2024-02-21T03:58:33;95998.66;;;3.77;92.26
79285;BME280;68734;50.452;11.636;2024-02-21T04:01:02;95999.28;;;3.79;92.33
79285;BME280;68734;50.452;11.636;2024-02-21T04:03:28;95998.03;;;3.75;92.32
79285;BME280;68734;50.452;11.636;2024-02-21T04:05:56;96007.28;;;3.79;91.98
79285;BME280;68734;50.452;11.636;2024-02-21T04:08:22;96001.94;;;3.79;91.95
79285;BME280;68734;50.452;11.636;2024-02-21T04:10:47;96009.31;;;3.84;92.02
79285;BME280;68734;50.452;11.636;2024-02-21T04:13:13;96005.00;;;3.90;91.74
79285;BME280;68734;50.452;11.636;2024-02-21T04:15:38;95997.81;;;3.84;91.81
79285;BME280;68734;50.452;11.636;2024-02-21T04:18:04;95996.78;;;3.78;91.61
79285;BME280;68734;50.452;11.636;2024-02-21T04:20:29;96013.25;;;3.82;91.84
79285;BME280;68734;50.452;11.636;2024-02-21T04:22:55;96011.81;;;3.86;91.80
79285;BME280;68734;50.452;11.636;2024-02-21T04:25:21;95989.78;;;3.90;91.33
79285;BME280;68734;50.452;11.636;2024-02-21T04:27:47;95979.94;;;3.84;91.39
79285;BME280;68734;50.452;11.636;2024-02-21T04:30:13;95992.88;;;3.94;91.38
79285;BME280;68734;50.452;11.636;2024-02-21T04:32:41;95989.59;;;3.92;91.40
79285;BME280;68734;50.452;11.636;2024-02-21T04:35:09;95979.31;;;3.89;91.43
79285;BME280;68734;50.452;11.636;2024-02-21T04:37:35;95980.97;;;3.90;91.31
79285;BME280;68734;50.452;11.636;2024-02-21T04:40:01;95983.19;;;3.93;91.18
79285;BME280;68734;50.452;11.636;2024-02-21T04:42:26;95971.53;;;3.87;91.75
79285;BME280;68734;50.452;11.636;2024-02-21T04:44:52;95967.59;;;3.90;92.08
79285;BME280;68734;50.452;11.636;2024-02-21T04:47:18;95947.22;;;3.89;91.96
79285;BME280;68734;50.452;11.636;2024-02-21T04:49:45;95956.50;;;3.86;92.21
79285;BME280;68734;50.452;11.636;2024-02-21T04:52:11;95959.59;;;3.90;92.36
79285;BME280;68734;50.452;11.636;2024-02-21T04:54:39;95949.53;;;3.85;92.39
79285;BME280;68734;50.452;11.636;2024-02-21T04:57:05;95969.84;;;3.93;92.72
79285;BME280;68734;50.452;11.636;2024-02-21T04:59:30;95964.94;;;3.90;92.74
79285;BME280;68734;50.452;11.636;2024-02-21T05:01:56;95955.47;;;3.87;92.74
79285;BME280;68734;50.452;11.636;2024-02-21T05:04:21;95955.88;;;3.91;92.90
79285;BME280;68734;50.452;11.636;2024-02-21T05:06:49;95950.94;;;3.88;92.98
79285;BME280;68734;50.452;11.636;2024-02-21T05:09:17;95941.88;;;3.89;93.29
79285;BME280;68734;50.452;11.636;2024-02-21T05:11:42;95937.78;;;3.86;93.54
79285;BME280;68734;50.452;11.636;2024-02-21T05:14:07;95920.75;;;3.80;93.95
79285;BME280;68734;50.452;11.636;2024-02-21T05:16:33;95922.81;;;3.78;94.12
79285;BME280;68734;50.452;11.636;2024-02-21T05:18:58;95923.03;;;3.77;94.21
79285;BME280;68734;50.452;11.636;2024-02-21T05:21:24;95910.88;;;3.74;94.63
79285;BME280;68734;50.452;11.636;2024-02-21T05:23:50;95921.97;;;3.78;94.76
79285;BME280;68734;50.452;11.636;2024-02-21T05:26:20;95906.59;;;3.73;94.47
79285;BME280;68734;50.452;11.636;2024-02-21T05:28:48;95905.38;;;3.69;94.80
79285;BME280;68734;50.452;11.636;2024-02-21T05:31:15;95882.94;;;3.70;94.54
79285;BME280;68734;50.452;11.636;2024-02-21T05:33:44;95895.47;;;3.76;94.26
79285;BME280;68734;50.452;11.636;2024-02-21T05:36:10;95900.41;;;3.79;94.01
79285;BME280;68734;50.452;11.636;2024-02-21T05:38:36;95890.53;;;3.80;93.79
79285;BME280;68734;50.452;11.636;2024-02-21T05:41:02;95898.56;;;3.73;93.84
79285;BME280;68734;50.452;11.636;2024-02-21T05:43:30;95872.88;;;3.72;93.11
79285;BME280;68734;50.452;11.636;2024-02-21T05:45:56;95854.16;;;3.72;93.11
79285;BME280;68734;50.452;11.636;2024-02-21T05:48:22;95855.00;;;3.66;92.89
79285;BME280;68734;50.452;11.636;2024-02-21T05:50:48;95848.44;;;3.62;92.26
79285;BME280;68734;50.452;11.636;2024-02-21T05:53:13;95826.06;;;3.56;92.01
79285;BME280;68734;50.452;11.636;2024-02-21T05:55:39;95815.59;;;3.48;92.18
79285;BME280;68734;50.452;11.636;2024-02-21T05:58:05;95831.84;;;3.47;92.53
79285;BME280;68734;50.452;11.636;2024-02-21T06:00:31;95832.28;;;3.44;92.09
79285;BME280;68734;50.452;11.636;2024-02-21T06:02:57;95831.03;;;3.39;92.12
79285;BME280;68734;50.452;11.636;2024-02-21T06:05:22;95833.50;;;3.34;91.91
79285;BME280;68734;50.452;11.636;2024-02-21T06:07:47;95833.53;;;3.28;92.24
79285;BME280;68734;50.452;11.636;2024-02-21T06:10:13;95817.53;;;3.21;92.29
79285;BME280;68734;50.452;11.636;2024-02-21T06:12:39;95824.50;;;3.22;92.59
79285;BME280;68734;50.452;11.636;2024-02-21T06:15:05;95824.09;;;3.25;92.71
79285;BME280;68734;50.452;11.636;2024-02-21T06:17:31;95824.94;;;3.19;92.78
79285;BME280;68734;50.452;11.636;2024-02-21T06:19:56;95810.53;;;3.20;92.85
79285;BME280;68734;50.452;11.636;2024-02-21T06:22:22;95810.34;;;3.15;92.65
79285;BME280;68734;50.452;11.636;2024-02-21T06:24:47;95814.66;;;3.16;92.67
79285;BME280;68734;50.452;11.636;2024-02-21T06:27:13;95814.03;;;3.14;92.59
79285;BME280;68734;50.452;11.636;2024-02-21T06:29:41;95809.75;;;3.13;92.85
79285;BME280;68734;50.452;11.636;2024-02-21T06:32:06;95811.16;;;3.15;92.84
79285;BME280;68734;50.452;11.636;2024-02-21T06:34:32;95819.59;;;3.19;92.59
79285;BME280;68734;50.452;11.636;2024-02-21T06:36:57;95802.31;;;3.22;92.58
79285;BME280;68734;50.452;11.636;2024-02-21T06:39:23;95810.13;;;3.23;92.16
79285;BME280;68734;50.452;11.636;2024-02-21T06:41:49;95799.22;;;3.25;92.44
79285;BME280;68734;50.452;11.636;2024-02-21T06:44:18;95812.97;;;3.28;92.29
79285;BME280;68734;50.452;11.636;2024-02-21T06:46:44;95841.13;;;3.37;92.03
79285;BME280;68734;50.452;11.636;2024-02-21T06:49:12;95852.81;;;3.36;91.72
79285;BME280;68734;50.452;11.636;2024-02-21T06:51:44;95861.00;;;3.48;91.46
79285;BME280;68734;50.452;11.636;2024-02-21T06:54:10;95865.13;;;3.51;91.24
79285;BME280;68734;50.452;11.636;2024-02-21T06:56:36;95861.03;;;3.55;90.89
79285;BME280;68734;50.452;11.636;2024-02-21T06:59:02;95861.00;;;3.62;90.55
79285;BME280;68734;50.452;11.636;2024-02-21T07:01:29;95860.16;;;3.68;90.34
79285;BME280;68734;50.452;11.636;2024-02-21T07:03:55;95849.66;;;3.73;90.17
79285;BME280;68734;50.452;11.636;2024-02-21T07:06:24;95841.63;;;3.79;90.08
79285;BME280;68734;50.452;11.636;2024-02-21T07:08:49;95827.63;;;3.84;89.37
79285;BME280;68734;50.452;11.636;2024-02-21T07:11:14;95828.88;;;3.82;88.65
79285;BME280;68734;50.452;11.636;2024-02-21T07:13:40;95815.69;;;3.87;87.67
79285;BME280;68734;50.452;11.636;2024-02-21T07:16:06;95810.28;;;4.00;86.82
79285;BME280;68734;50.452;11.636;2024-02-21T07:18:31;95813.50;;;4.15;86.24
79285;BME280;68734;50.452;11.636;2024-02-21T07:20:57;95827.66;;;4.23;86.26
79285;BME280;68734;50.452;11.636;2024-02-21T07:23:23;95819.22;;;4.26;86.27
79285;BME280;68734;50.452;11.636;2024-02-21T07:25:49;95818.34;;;4.32;86.45
79285;BME280;68734;50.452;11.636;2024-02-21T07:28:14;95838.13;;;4.24;87.00
79285;BME280;68734;50.452;11.636;2024-02-21T07:30:41;95854.84;;;4.19;87.95
79285;BME280;68734;50.452;11.636;2024-02-21T07:33:07;95858.34;;;4.13;88.17
79285;BME280;68734;50.452;11.636;2024-02-21T07:35:32;95874.81;;;4.10;88.86
79285;BME280;68734;50.452;11.636;2024-02-21T07:37:58;95866.97;;;4.15;89.08
79285;BME280;68734;50.452;11.636;2024-02-21T07:40:23;95862.06;;;4.12;89.13
79285;BME280;68734;50.452;11.636;2024-02-21T07:42:49;95857.50;;;4.13;89.65
79285;BME280;68734;50.452;11.636;2024-02-21T07:45:14;95836.81;;;4.02;89.65
79285;BME280;68734;50.452;11.636;2024-02-21T07:47:40;95833.09;;;4.09;89.75
79285;BME280;68734;50.452;11.636;2024-02-21T07:50:06;95814.75;;;4.13;89.31
79285;BME280;68734;50.452;11.636;2024-02-21T07:52:32;95806.13;;;4.11;89.34
79285;BME280;68734;50.452;11.636;2024-02-21T07:54:57;95818.50;;;4.05;89.88
79285;BME280;68734;50.452;11.636;2024-02-21T07:57:23;95825.91;;;4.03;89.99
79285;BME280;68734;50.452;11.636;2024-02-21T07:59:48;95834.09;;;4.08;90.35
79285;BME280;68734;50.452;11.636;2024-02-21T08:02:16;95825.28;;;4.08;90.24
79285;BME280;68734;50.452;11.636;2024-02-21T08:04:41;95823.59;;;4.13;90.18
79285;BME280;68734;50.452;11.636;2024-02-21T08:07:07;95817.41;;;4.19;89.70
79285;BME280;68734;50.452;11.636;2024-02-21T08:09:33;95823.09;;;4.30;89.66
79285;BME280;68734;50.452;11.636;2024-02-21T08:11:58;95820.78;;;4.40;89.46
79285;BME280;68734;50.452;11.636;2024-02-21T08:14:24;95811.69;;;4.48;89.16
79285;BME280;68734;50.452;11.636;2024-02-21T08:16:51;95817.59;;;4.56;88.97
79285;BME280;68734;50.452;11.636;2024-02-21T08:19:22;95817.72;;;4.68;88.60
79285;BME280;68734;50.452;11.636;2024-02-21T08:21:48;95811.28;;;4.76;88.28
79285;BME280;68734;50.452;11.636;2024-02-21T08:24:14;95806.53;;;4.78;87.81
79285;BME280;68734;50.452;11.636;2024-02-21T08:26:44;95817.66;;;4.75;87.90
79285;BME280;68734;50.452;11.636;2024-02-21T08:29:12;95814.75;;;4.76;87.93
79285;BME280;68734;50.452;11.636;2024-02-21T08:31:40;95809.81;;;4.80;87.67
79285;BME280;68734;50.452;11.636;2024-02-21T08:34:05;95821.34;;;5.06;86.89
79285;BME280;68734;50.452;11.636;2024-02-21T08:36:32;95817.66;;;5.25;86.46
79285;BME280;68734;50.452;11.636;2024-02-21T08:38:58;95807.28;;;5.35;85.42
79285;BME280;68734;50.452;11.636;2024-02-21T08:41:24;95818.88;;;5.29;85.92
79285;BME280;68734;50.452;11.636;2024-02-21T08:43:53;95823.63;;;5.27;85.82
79285;BME280;68734;50.452;11.636;2024-02-21T08:46:23;95821.44;;;5.17;86.71
79285;BME280;68734;50.452;11.636;2024-02-21T08:48:50;95820.78;;;4.97;87.20
79285;BME280;68734;50.452;11.636;2024-02-21T08:51:16;95820.13;;;5.02;87.27
79285;BME280;68734;50.452;11.636;2024-02-21T08:53:43;95815.00;;;5.00;87.16
79285;BME280;68734;50.452;11.636;2024-02-21T08:56:11;95820.28;;;5.07;87.06
79285;BME280;68734;50.452;11.636;2024-02-21T08:58:38;95839.19;;;5.12;86.81
79285;BME280;68734;50.452;11.636;2024-02-21T09:01:04;95833.75;;;5.25;85.97
79285;BME280;68734;50.452;11.636;2024-02-21T09:03:33;95835.06;;;5.16;85.85
79285;BME280;68734;50.452;11.636;2024-02-21T09:05:59;95834.47;;;5.32;85.27
79285;BME280;68734;50.452;11.636;2024-02-21T09:08:26;95834.78;;;5.43;85.50
79285;BME280;68734;50.452;11.636;2024-02-21T09:10:54;95830.19;;;5.50;83.71
79285;BME280;68734;50.452;11.636;2024-02-21T09:13:20;95844.50;;;5.62;83.00
79285;BME280;68734;50.452;11.636;2024-02-21T09:15:46;95840.50;;;5.71;82.28
79285;BME280;68734;50.452;11.636;2024-02-21T09:18:12;95840.03;;;5.74;82.20
79285;BME280;68734;50.452;11.636;2024-02-21T09:20:37;95830.50;;;5.78;81.78
79285;BME280;68734;50.452;11.636;2024-02-21T09:23:03;95830.81;;;5.70;81.56
79285;BME280;68734;50.452;11.636;2024-02-21T09:25:28;95846.16;;;5.82;81.45
79285;BME280;68734;50.452;11.636;2024-02-21T09:27:54;95834.66;;;5.93;81.93
79285;BME280;68734;50.452;11.636;2024-02-21T09:30:20;95836.19;;;6.07;80.31
79285;BME280;68734;50.452;11.636;2024-02-21T09:32:46;95832.66;;;6.25;79.56
79285;BME280;68734;50.452;11.636;2024-02-21T09:35:12;95831.41;;;6.09;78.28
79285;BME280;68734;50.452;11.636;2024-02-21T09:37:41;95833.47;;;5.95;78.57
79285;BME280;68734;50.452;11.636;2024-02-21T09:40:06;95823.22;;;5.86;78.78
79285;BME280;68734;50.452;11.636;2024-02-21T09:42:38;95834.38;;;5.83;79.38
79285;BME280;68734;50.452;11.636;2024-02-21T09:45:09;95827.75;;;5.85;78.70
79285;BME280;68734;50.452;11.636;2024-02-21T09:50:18;95829.31;;;6.11;76.62
79285;BME280;68734;50.452;11.636;2024-02-21T09:52:46;95832.00;;;6.11;76.96
79285;BME280;68734;50.452;11.636;2024-02-21T09:55:16;95825.28;;;6.21;76.80
79285;BME280;68734;50.452;11.636;2024-02-21T09:57:44;95830.34;;;6.29;75.97
79285;BME280;68734;50.452;11.636;2024-02-21T10:00:10;95808.19;;;6.03;74.93
79285;BME280;68734;50.452;11.636;2024-02-21T10:02:36;95828.56;;;6.23;76.12
79285;BME280;68734;50.452;11.636;2024-02-21T10:05:02;95815.81;;;6.36;75.05
79285;BME280;68734;50.452;11.636;2024-02-21T10:07:32;95812.84;;;6.56;74.90
79285;BME280;68734;50.452;11.636;2024-02-21T10:10:02;95807.91;;;6.84;73.60
79285;BME280;68734;50.452;11.636;2024-02-21T10:12:27;95791.19;;;6.93;73.21
79285;BME280;68734;50.452;11.636;2024-02-21T10:15:06;95792.38;;;6.97;73.11
79285;BME280;68734;50.452;11.636;2024-02-21T10:17:32;95785.66;;;6.65;72.20
79285;BME280;68734;50.452;11.636;2024-02-21T10:20:13;95806.38;;;6.76;73.68
79285;BME280;68734;50.452;11.636;2024-02-21T10:22:40;95800.66;;;6.84;73.75
79285;BME280;68734;50.452;11.636;2024-02-21T10:25:11;95787.09;;;6.79;72.73
79285;BME280;68734;50.452;11.636;2024-02-21T10:27:37;95781.13;;;6.77;72.70
79285;BME280;68734;50.452;11.636;2024-02-21T10:30:07;95789.88;;;6.72;73.84
79285;BME280;68734;50.452;11.636;2024-02-21T10:32:33;95787.31;;;6.66;73.09
79285;BME280;68734;50.452;11.636;2024-02-21T10:35:03;95795.25;;;6.72;73.26
79285;BME280;68734;50.452;11.636;2024-02-21T10:37:34;95795.16;;;6.79;73.69
79285;BME280;68734;50.452;11.636;2024-02-21T10:40:00;95784.41;;;6.79;72.66
79285;BME280;68734;50.452;11.636;2024-02-21T10:42:29;95781.13;;;6.77;72.00
79285;BME280;68734;50.452;11.636;2024-02-21T10:45:00;95783.72;;;6.72;73.01
79285;BME280;68734;50.452;11.636;2024-02-21T10:47:28;95782.31;;;6.81;73.34
79285;BME280;68734;50.452;11.636;2024-02-21T10:50:03;95776.00;;;6.87;73.10
79285;BME280;68734;50.452;11.636;2024-02-21T10:55:03;95759.09;;;6.98;72.57
79285;BME280;68734;50.452;11.636;2024-02-21T10:57:31;95749.88;;;6.94;72.00
79285;BME280;68734;50.452;11.636;2024-02-21T10:59:59;95736.09;;;6.79;72.20
79285;BME280;68734;50.452;11.636;2024-02-21T11:02:26;95731.66;;;6.85;71.38
79285;BME280;68734;50.452;11.636;2024-02-21T11:04:55;95741.81;;;6.83;71.35
79285;BME280;68734;50.452;11.636;2024-02-21T11:07:21;95731.78;;;6.90;71.69
79285;BME280;68734;50.452;11.636;2024-02-21T11:09:53;95716.50;;;6.90;70.84
79285;BME280;68734;50.452;11.636;2024-02-21T11:12:22;95722.31;;;6.87;70.96
79285;BME280;68734;50.452;11.636;2024-02-21T11:14:50;95728.16;;;6.84;71.40
79285;BME280;68734;50.452;11.636;2024-02-21T11:17:16;95731.53;;;6.91;70.80
79285;BME280;68734;50.452;11.636;2024-02-21T11:19:42;95725.94;;;6.93;71.08
79285;BME280;68734;50.452;11.636;2024-02-21T11:22:15;95734.59;;;6.95;71.08
79285;BME280;68734;50.452;11.636;2024-02-21T11:24:42;95723.38;;;6.98;71.45
79285;BME280;68734;50.452;11.636;2024-02-21T11:27:22;95724.06;;;6.93;70.24
79285;BME280;68734;50.452;11.636;2024-02-21T11:29:57;95718.81;;;6.98;71.34
79285;BME280;68734;50.452;11.636;2024-02-21T11:32:25;95713.00;;;7.02;70.43
79285;BME280;68734;50.452;11.636;2024-02-21T11:37:19;95707.28;;;7.10;71.02
79285;BME280;68734;50.452;11.636;2024-02-21T11:39:45;95699.22;;;7.10;69.40
79285;BME280;68734;50.452;11.636;2024-02-21T11:42:10;95691.97;;;7.22;70.33
79285;BME280;68734;50.452;11.636;2024-02-21T11:44:38;95679.31;;;7.34;70.11
79285;BME280;68734;50.452;11.636;2024-02-21T11:47:05;95670.44;;;7.46;69.64
79285;BME280;68734;50.452;11.636;2024-02-21T11:49:37;95666.72;;;7.64;69.52
79285;BME280;68734;50.452;11.636;2024-02-21T11:52:04;95659.91;;;7.73;68.38
79285;BME280;68734;50.452;11.636;2024-02-21T11:54:30;95647.56;;;7.72;66.92
79285;BME280;68734;50.452;11.636;2024-02-21T11:56:56;95647.31;;;7.62;66.93
79285;BME280;68734;50.452;11.636;2024-02-21T11:59:21;95643.97;;;7.54;66.45
79285;BME280;68734;50.452;11.636;2024-02-21T12:01:49;95638.63;;;7.43;67.59
79285;BME280;68734;50.452;11.636;2024-02-21T12:04:17;95638.53;;;7.37;67.29
79285;BME280;68734;50.452;11.636;2024-02-21T12:06:45;95642.06;;;7.38;67.56
79285;BME280;68734;50.452;11.636;2024-02-21T12:09:14;95637.72;;;7.37;67.65
79285;BME280;68734;50.452;11.636;2024-02-21T12:11:40;95631.63;;;7.42;67.10
79285;BME280;68734;50.452;11.636;2024-02-21T12:14:06;95630.69;;;7.48;66.91
79285;BME280;68734;50.452;11.636;2024-02-21T12:16:32;95629.25;;;7.57;67.47
79285;BME280;68734;50.452;11.636;2024-02-21T12:19:01;95625.50;;;7.58;67.82
79285;BME280;68734;50.452;11.636;2024-02-21T12:21:33;95616.72;;;7.63;67.77
79285;BME280;68734;50.452;11.636;2024-02-21T12:24:15;95620.31;;;7.68;66.87
79285;BME280;68734;50.452;11.636;2024-02-21T12:26:41;95625.13;;;7.66;67.21
79285;BME280;68734;50.452;11.636;2024-02-21T12:29:07;95605.22;;;7.67;67.77
79285;BME280;68734;50.452;11.636;2024-02-21T12:31:37;95607.28;;;7.60;67.18
79285;BME280;68734;50.452;11.636;2024-02-21T12:34:03;95606.31;;;7.66;67.84
79285;BME280;68734;50.452;11.636;2024-02-21T12:36:32;95595.44;;;7.61;67.51
79285;BME280;68734;50.452;11.636;2024-02-21T12:38:58;95591.31;;;7.70;67.43
79285;BME280;68734;50.452;11.636;2024-02-21T12:41:26;95578.94;;;7.69;66.66
79285;BME280;68734;50.452;11.636;2024-02-21T12:43:52;95572.41;;;7.65;66.80
79285;BME280;68734;50.452;11.636;2024-02-21T12:46:20;95562.03;;;7.57;67.06
79285;BME280;68734;50.452;11.636;2024-02-21T12:48:48;95568.00;;;7.59;67.25
79285;BME280;68734;50.452;11.636;2024-02-21T12:51:14;95572.78;;;7.57;67.32
79285;BME280;68734;50.452;11.636;2024-02-21T12:53:47;95560.50;;;7.61;67.73
79285;BME280;68734;50.452;11.636;2024-02-21T12:56:12;95560.59;;;7.66;67.11
79285;BME280;68734;50.452;11.636;2024-02-21T12:58:38;95566.06;;;7.71;66.19
79285;BME280;68734;50.452;11.636;2024-02-21T13:01:03;95566.41;;;7.75;67.52
79285;BME280;68734;50.452;11.636;2024-02-21T13:03:29;95554.84;;;7.74;66.96
79285;BME280;68734;50.452;11.636;2024-02-21T13:05:55;95550.25;;;7.58;66.68